Terminal Aerodrome Forecast
Issued by NWS

Home | Current Version | Previous Version | Text Only | Print | Product List | Glossary Off
Versions: 1 2 3 4 5 6 7 8 9 10 11 12 13 14 15 16 17 18 19 20 21 22 23 24 25 26 27 28 29 30 31 32 33 34 35 36

000
FTUS43 KABR 150643 AAC
TAFPIR
TAF AMD
KPIR 150643Z 1507/1606 VRB05KT P6SM VCTS BKN045CB
     FM150900 11008KT P6SM VCTS OVC060CB
     FM151500 12010KT P6SM BKN070
     FM151800 13011KT P6SM -SHRA VCTS BKN040CB
     FM152300 08009KT P6SM -SHRA VCTS BKN040CB
     FM160500 01005KT P6SM BKN060=

USA.gov is the U.S. government's official web portal to all federal, state and local government web resources and services.